sensor_id;sensor_type;location;lat;lon;timestamp;P1;durP1;ratioP1;P2;durP2;ratioP2
15006;SDS011;7599;50.748;13.142;2024-01-15T00:00:32;1.67;;;1.15;;
15006;SDS011;7599;50.748;13.142;2024-01-15T00:04:29;2.50;;;1.30;;
15006;SDS011;7599;50.748;13.142;2024-01-15T00:08:17;2.03;;;1.00;;
15006;SDS011;7599;50.748;13.142;2024-01-15T00:19:29;1.33;;;0.98;;
15006;SDS011;7599;50.748;13.142;2024-01-15T00:27:21;1.65;;;0.98;;
15006;SDS011;7599;50.748;13.142;2024-01-15T00:31:05;2.10;;;1.20;;
15006;SDS011;7599;50.748;13.142;2024-01-15T00:34:31;2.08;;;1.20;;
15006;SDS011;7599;50.748;13.142;2024-01-15T00:45:04;2.75;;;1.20;;
15006;SDS011;7599;50.748;13.142;2024-01-15T00:52:43;3.53;;;1.10;;
15006;SDS011;7599;50.748;13.142;2024-01-15T00:59:48;1.45;;;1.00;;
15006;SDS011;7599;50.748;13.142;2024-01-15T01:03:17;2.55;;;1.25;;
15006;SDS011;7599;50.748;13.142;2024-01-15T01:06:43;2.65;;;1.15;;
15006;SDS011;7599;50.748;13.142;2024-01-15T01:10:29;1.52;;;0.90;;
15006;SDS011;7599;50.748;13.142;2024-01-15T01:13:56;2.28;;;1.30;;
15006;SDS011;7599;50.748;13.142;2024-01-15T01:17:57;1.90;;;1.13;;
15006;SDS011;7599;50.748;13.142;2024-01-15T01:21:26;2.13;;;1.10;;
15006;SDS011;7599;50.748;13.142;2024-01-15T01:25:04;2.22;;;1.02;;
15006;SDS011;7599;50.748;13.142;2024-01-15T01:32:17;1.90;;;1.15;;
15006;SDS011;7599;50.748;13.142;2024-01-15T01:51:24;2.05;;;1.02;;
15006;SDS011;7599;50.748;13.142;2024-01-15T01:54:54;2.95;;;1.20;;
15006;SDS011;7599;50.748;13.142;2024-01-15T01:58:39;1.95;;;1.20;;
15006;SDS011;7599;50.748;13.142;2024-01-15T02:02:16;2.65;;;1.23;;
15006;SDS011;7599;50.748;13.142;2024-01-15T02:06:34;1.90;;;1.00;;
15006;SDS011;7599;50.748;13.142;2024-01-15T02:10:04;2.45;;;1.30;;
15006;SDS011;7599;50.748;13.142;2024-01-15T02:13:38;1.73;;;1.00;;
15006;SDS011;7599;50.748;13.142;2024-01-15T02:17:06;2.22;;;1.08;;
15006;SDS011;7599;50.748;13.142;2024-01-15T02:24:21;1.60;;;0.98;;
15006;SDS011;7599;50.748;13.142;2024-01-15T02:28:06;2.03;;;1.13;;
15006;SDS011;7599;50.748;13.142;2024-01-15T02:31:54;3.20;;;1.35;;
15006;SDS011;7599;50.748;13.142;2024-01-15T02:36:10;1.67;;;0.90;;
15006;SDS011;7599;50.748;13.142;2024-01-15T02:39:54;2.08;;;1.10;;
15006;SDS011;7599;50.748;13.142;2024-01-15T02:43:38;2.45;;;1.00;;
15006;SDS011;7599;50.748;13.142;2024-01-15T02:50:42;2.13;;;1.20;;
15006;SDS011;7599;50.748;13.142;2024-01-15T03:02:01;2.20;;;1.17;;
15006;SDS011;7599;50.748;13.142;2024-01-15T03:05:38;2.15;;;1.08;;
15006;SDS011;7599;50.748;13.142;2024-01-15T03:09:28;2.05;;;1.00;;
15006;SDS011;7599;50.748;13.142;2024-01-15T03:13:03;2.95;;;1.20;;
15006;SDS011;7599;50.748;13.142;2024-01-15T03:16:40;2.17;;;1.13;;
15006;SDS011;7599;50.748;13.142;2024-01-15T03:28:19;2.28;;;1.15;;
15006;SDS011;7599;50.748;13.142;2024-01-15T03:31:22;2.30;;;1.50;;
15006;SDS011;7599;50.748;13.142;2024-01-15T03:35:06;2.78;;;1.50;;
15006;SDS011;7599;50.748;13.142;2024-01-15T03:38:40;3.22;;;1.73;;
15006;SDS011;7599;50.748;13.142;2024-01-15T03:41:43;1.80;;;1.38;;
15006;SDS011;7599;50.748;13.142;2024-01-15T03:45:12;2.03;;;1.38;;
15006;SDS011;7599;50.748;13.142;2024-01-15T03:55:42;3.67;;;1.90;;
15006;SDS011;7599;50.748;13.142;2024-01-15T03:59:43;2.92;;;1.75;;
15006;SDS011;7599;50.748;13.142;2024-01-15T04:07:20;2.78;;;1.40;;
15006;SDS011;7599;50.748;13.142;2024-01-15T04:11:03;2.40;;;1.50;;
15006;SDS011;7599;50.748;13.142;2024-01-15T04:14:56;2.70;;;1.63;;
15006;SDS011;7599;50.748;13.142;2024-01-15T04:21:58;3.75;;;1.88;;
15006;SDS011;7599;50.748;13.142;2024-01-15T04:25:24;5.15;;;2.20;;
15006;SDS011;7599;50.748;13.142;2024-01-15T04:29:10;2.40;;;1.35;;
15006;SDS011;7599;50.748;13.142;2024-01-15T04:32:47;3.35;;;1.70;;
15006;SDS011;7599;50.748;13.142;2024-01-15T04:39:43;3.00;;;1.65;;
15006;SDS011;7599;50.748;13.142;2024-01-15T04:43:39;3.80;;;1.75;;
15006;SDS011;7599;50.748;13.142;2024-01-15T04:50:51;2.35;;;1.45;;
15006;SDS011;7599;50.748;13.142;2024-01-15T04:54:05;2.00;;;1.40;;
15006;SDS011;7599;50.748;13.142;2024-01-15T04:57:33;3.83;;;1.70;;
15006;SDS011;7599;50.748;13.142;2024-01-15T05:05:17;3.90;;;1.58;;
15006;SDS011;7599;50.748;13.142;2024-01-15T05:19:46;2.85;;;1.67;;
15006;SDS011;7599;50.748;13.142;2024-01-15T05:23:31;3.35;;;1.70;;
15006;SDS011;7599;50.748;13.142;2024-01-15T05:30:53;3.05;;;1.85;;
15006;SDS011;7599;50.748;13.142;2024-01-15T05:34:10;2.60;;;1.67;;
15006;SDS011;7599;50.748;13.142;2024-01-15T05:40:57;3.45;;;1.83;;
15006;SDS011;7599;50.748;13.142;2024-01-15T05:44:37;3.95;;;2.10;;
15006;SDS011;7599;50.748;13.142;2024-01-15T05:48:37;2.83;;;1.60;;
15006;SDS011;7599;50.748;13.142;2024-01-15T05:59:08;3.75;;;1.73;;
15006;SDS011;7599;50.748;13.142;2024-01-15T06:02:34;3.47;;;1.73;;
15006;SDS011;7599;50.748;13.142;2024-01-15T06:06:04;3.65;;;2.03;;
15006;SDS011;7599;50.748;13.142;2024-01-15T06:09:25;3.22;;;2.00;;
15006;SDS011;7599;50.748;13.142;2024-01-15T06:12:54;4.32;;;1.88;;
15006;SDS011;7599;50.748;13.142;2024-01-15T06:16:25;2.53;;;1.60;;
15006;SDS011;7599;50.748;13.142;2024-01-15T06:19:52;3.40;;;1.70;;
15006;SDS011;7599;50.748;13.142;2024-01-15T06:27:16;3.25;;;2.03;;
15006;SDS011;7599;50.748;13.142;2024-01-15T06:30:48;4.18;;;2.20;;
15006;SDS011;7599;50.748;13.142;2024-01-15T06:34:36;3.47;;;1.80;;
15006;SDS011;7599;50.748;13.142;2024-01-15T06:38:13;2.55;;;1.42;;
15006;SDS011;7599;50.748;13.142;2024-01-15T06:41:43;3.92;;;1.92;;
15006;SDS011;7599;50.748;13.142;2024-01-15T06:45:17;2.92;;;1.58;;
15006;SDS011;7599;50.748;13.142;2024-01-15T06:49:17;2.67;;;1.70;;
15006;SDS011;7599;50.748;13.142;2024-01-15T06:56:44;3.65;;;2.10;;
15006;SDS011;7599;50.748;13.142;2024-01-15T07:03:51;2.95;;;1.83;;
15006;SDS011;7599;50.748;13.142;2024-01-15T07:07:08;5.15;;;2.08;;
15006;SDS011;7599;50.748;13.142;2024-01-15T07:10:34;3.50;;;2.05;;
15006;SDS011;7599;50.748;13.142;2024-01-15T07:13:53;2.58;;;1.70;;
15006;SDS011;7599;50.748;13.142;2024-01-15T07:17:25;3.50;;;2.00;;
15006;SDS011;7599;50.748;13.142;2024-01-15T07:21:08;4.45;;;2.20;;
15006;SDS011;7599;50.748;13.142;2024-01-15T07:24:25;4.22;;;2.20;;
15006;SDS011;7599;50.748;13.142;2024-01-15T07:28:12;3.58;;;1.58;;
15006;SDS011;7599;50.748;13.142;2024-01-15T07:31:43;4.00;;;2.08;;
15006;SDS011;7599;50.748;13.142;2024-01-15T07:35:11;2.80;;;1.75;;
15006;SDS011;7599;50.748;13.142;2024-01-15T07:42:10;2.78;;;1.60;;
15006;SDS011;7599;50.748;13.142;2024-01-15T07:46:04;2.78;;;1.75;;
15006;SDS011;7599;50.748;13.142;2024-01-15T07:58:00;3.63;;;1.55;;
15006;SDS011;7599;50.748;13.142;2024-01-15T08:02:00;2.42;;;1.30;;
15006;SDS011;7599;50.748;13.142;2024-01-15T08:11:07;2.65;;;1.58;;
15006;SDS011;7599;50.748;13.142;2024-01-15T08:23:17;2.50;;;1.17;;
15006;SDS011;7599;50.748;13.142;2024-01-15T08:27:15;3.75;;;1.58;;
15006;SDS011;7599;50.748;13.142;2024-01-15T08:31:26;2.97;;;1.40;;
15006;SDS011;7599;50.748;13.142;2024-01-15T08:38:32;1.83;;;1.35;;
15006;SDS011;7599;50.748;13.142;2024-01-15T08:42:02;3.42;;;1.50;;
15006;SDS011;7599;50.748;13.142;2024-01-15T08:45:42;2.80;;;1.58;;
15006;SDS011;7599;50.748;13.142;2024-01-15T08:49:06;2.80;;;1.35;;
15006;SDS011;7599;50.748;13.142;2024-01-15T08:52:49;3.72;;;1.70;;
15006;SDS011;7599;50.748;13.142;2024-01-15T08:56:15;3.10;;;1.40;;
15006;SDS011;7599;50.748;13.142;2024-01-15T08:59:46;3.80;;;1.40;;
15006;SDS011;7599;50.748;13.142;2024-01-15T09:03:14;3.38;;;1.40;;
15006;SDS011;7599;50.748;13.142;2024-01-15T09:06:56;2.83;;;1.60;;
15006;SDS011;7599;50.748;13.142;2024-01-15T09:10:22;4.78;;;1.88;;
15006;SDS011;7599;50.748;13.142;2024-01-15T09:18:05;2.80;;;1.40;;
15006;SDS011;7599;50.748;13.142;2024-01-15T09:26:07;3.05;;;1.50;;
15006;SDS011;7599;50.748;13.142;2024-01-15T09:29:35;4.72;;;1.40;;
15006;SDS011;7599;50.748;13.142;2024-01-15T09:33:00;2.95;;;1.60;;
15006;SDS011;7599;50.748;13.142;2024-01-15T09:36:45;3.20;;;1.70;;
15006;SDS011;7599;50.748;13.142;2024-01-15T09:40:02;2.40;;;1.02;;
15006;SDS011;7599;50.748;13.142;2024-01-15T09:43:36;2.10;;;1.35;;
15006;SDS011;7599;50.748;13.142;2024-01-15T09:58:15;2.47;;;1.23;;
15006;SDS011;7599;50.748;13.142;2024-01-15T10:01:42;2.00;;;1.13;;
15006;SDS011;7599;50.748;13.142;2024-01-15T10:05:17;4.95;;;1.70;;
15006;SDS011;7599;50.748;13.142;2024-01-15T10:08:58;2.33;;;1.40;;
15006;SDS011;7599;50.748;13.142;2024-01-15T10:12:05;3.50;;;1.67;;
15006;SDS011;7599;50.748;13.142;2024-01-15T10:15:45;2.33;;;1.10;;
15006;SDS011;7599;50.748;13.142;2024-01-15T10:19:09;2.60;;;1.67;;
15006;SDS011;7599;50.748;13.142;2024-01-15T10:22:49;2.90;;;1.30;;
15006;SDS011;7599;50.748;13.142;2024-01-15T10:26:03;1.70;;;1.13;;
15006;SDS011;7599;50.748;13.142;2024-01-15T10:29:24;3.13;;;1.20;;
15006;SDS011;7599;50.748;13.142;2024-01-15T10:33:04;2.80;;;1.15;;
15006;SDS011;7599;50.748;13.142;2024-01-15T10:37:10;3.25;;;1.35;;
15006;SDS011;7599;50.748;13.142;2024-01-15T10:40:40;2.28;;;1.10;;
15006;SDS011;7599;50.748;13.142;2024-01-15T10:44:07;2.22;;;1.13;;
15006;SDS011;7599;50.748;13.142;2024-01-15T10:47:21;2.20;;;1.25;;
15006;SDS011;7599;50.748;13.142;2024-01-15T10:50:45;2.75;;;1.30;;
15006;SDS011;7599;50.748;13.142;2024-01-15T10:57:59;1.75;;;0.95;;
15006;SDS011;7599;50.748;13.142;2024-01-15T11:02:05;3.03;;;1.30;;
15006;SDS011;7599;50.748;13.142;2024-01-15T11:16:25;2.13;;;1.33;;
15006;SDS011;7599;50.748;13.142;2024-01-15T11:20:32;2.85;;;1.50;;
15006;SDS011;7599;50.748;13.142;2024-01-15T11:35:26;2.00;;;1.20;;
15006;SDS011;7599;50.748;13.142;2024-01-15T11:42:51;1.45;;;1.10;;
15006;SDS011;7599;50.748;13.142;2024-01-15T11:46:31;1.85;;;1.10;;
15006;SDS011;7599;50.748;13.142;2024-01-15T11:50:28;2.45;;;1.38;;
15006;SDS011;7599;50.748;13.142;2024-01-15T11:54:04;2.42;;;1.25;;
15006;SDS011;7599;50.748;13.142;2024-01-15T11:57:57;2.38;;;1.13;;
15006;SDS011;7599;50.748;13.142;2024-01-15T12:01:34;2.05;;;1.23;;
15006;SDS011;7599;50.748;13.142;2024-01-15T12:04:57;2.17;;;1.40;;
15006;SDS011;7599;50.748;13.142;2024-01-15T12:16:19;2.25;;;1.00;;
15006;SDS011;7599;50.748;13.142;2024-01-15T12:23:55;3.08;;;1.25;;
15006;SDS011;7599;50.748;13.142;2024-01-15T12:27:32;2.50;;;1.20;;
15006;SDS011;7599;50.748;13.142;2024-01-15T12:30:55;4.07;;;1.40;;
15006;SDS011;7599;50.748;13.142;2024-01-15T12:34:37;2.28;;;1.23;;
15006;SDS011;7599;50.748;13.142;2024-01-15T12:38:12;2.63;;;1.40;;
15006;SDS011;7599;50.748;13.142;2024-01-15T12:41:35;3.05;;;1.30;;
15006;SDS011;7599;50.748;13.142;2024-01-15T12:44:57;3.55;;;1.20;;
15006;SDS011;7599;50.748;13.142;2024-01-15T12:51:58;2.05;;;1.40;;
15006;SDS011;7599;50.748;13.142;2024-01-15T12:55:31;2.58;;;1.20;;
15006;SDS011;7599;50.748;13.142;2024-01-15T13:02:01;1.95;;;1.05;;
15006;SDS011;7599;50.748;13.142;2024-01-15T13:09:08;2.43;;;1.20;;
15006;SDS011;7599;50.748;13.142;2024-01-15T13:12:25;2.63;;;1.00;;
15006;SDS011;7599;50.748;13.142;2024-01-15T13:16:06;3.22;;;1.23;;
15006;SDS011;7599;50.748;13.142;2024-01-15T13:23:19;7.28;;;1.38;;
15006;SDS011;7599;50.748;13.142;2024-01-15T13:30:40;1.40;;;0.85;;
15006;SDS011;7599;50.748;13.142;2024-01-15T13:34:01;2.65;;;1.15;;
15006;SDS011;7599;50.748;13.142;2024-01-15T13:37:28;1.90;;;0.90;;
15006;SDS011;7599;50.748;13.142;2024-01-15T13:47:53;2.03;;;1.10;;
15006;SDS011;7599;50.748;13.142;2024-01-15T13:51:33;2.90;;;1.20;;
15006;SDS011;7599;50.748;13.142;2024-01-15T14:01:57;3.15;;;1.23;;
15006;SDS011;7599;50.748;13.142;2024-01-15T14:05:28;1.73;;;1.02;;
15006;SDS011;7599;50.748;13.142;2024-01-15T14:08:50;1.85;;;1.27;;
15006;SDS011;7599;50.748;13.142;2024-01-15T14:22:50;2.08;;;1.10;;
15006;SDS011;7599;50.748;13.142;2024-01-15T14:26:16;1.98;;;1.48;;
15006;SDS011;7599;50.748;13.142;2024-01-15T14:33:17;1.92;;;1.30;;
15006;SDS011;7599;50.748;13.142;2024-01-15T14:37:04;2.30;;;1.30;;
15006;SDS011;7599;50.748;13.142;2024-01-15T14:40:43;2.75;;;1.45;;
15006;SDS011;7599;50.748;13.142;2024-01-15T14:44:00;2.60;;;1.50;;
15006;SDS011;7599;50.748;13.142;2024-01-15T14:48:03;4.05;;;1.05;;
15006;SDS011;7599;50.748;13.142;2024-01-15T14:51:52;2.40;;;1.20;;
15006;SDS011;7599;50.748;13.142;2024-01-15T14:55:07;3.05;;;1.20;;
15006;SDS011;7599;50.748;13.142;2024-01-15T15:03:09;1.90;;;1.00;;
15006;SDS011;7599;50.748;13.142;2024-01-15T15:07:01;1.60;;;0.88;;
15006;SDS011;7599;50.748;13.142;2024-01-15T15:10:43;1.90;;;1.20;;
15006;SDS011;7599;50.748;13.142;2024-01-15T15:14:27;1.48;;;0.93;;
15006;SDS011;7599;50.748;13.142;2024-01-15T15:21:07;1.77;;;0.95;;
15006;SDS011;7599;50.748;13.142;2024-01-15T15:28:14;1.98;;;1.10;;
15006;SDS011;7599;50.748;13.142;2024-01-15T15:32:00;2.65;;;1.42;;
15006;SDS011;7599;50.748;13.142;2024-01-15T15:35:31;2.25;;;1.20;;
15006;SDS011;7599;50.748;13.142;2024-01-15T15:46:19;2.88;;;1.23;;
15006;SDS011;7599;50.748;13.142;2024-01-15T15:49:53;1.60;;;0.75;;
15006;SDS011;7599;50.748;13.142;2024-01-15T15:57:14;3.13;;;1.33;;
15006;SDS011;7599;50.748;13.142;2024-01-15T16:01:09;2.78;;;1.02;;
15006;SDS011;7599;50.748;13.142;2024-01-15T16:04:21;2.08;;;0.90;;
15006;SDS011;7599;50.748;13.142;2024-01-15T16:07:44;3.60;;;1.80;;
15006;SDS011;7599;50.748;13.142;2024-01-15T16:11:15;1.83;;;0.95;;
15006;SDS011;7599;50.748;13.142;2024-01-15T16:25:13;1.95;;;1.10;;
15006;SDS011;7599;50.748;13.142;2024-01-15T16:28:35;2.58;;;1.08;;
15006;SDS011;7599;50.748;13.142;2024-01-15T16:31:56;2.28;;;1.35;;
15006;SDS011;7599;50.748;13.142;2024-01-15T16:35:05;1.58;;;1.10;;
15006;SDS011;7599;50.748;13.142;2024-01-15T16:38:33;2.58;;;1.23;;
15006;SDS011;7599;50.748;13.142;2024-01-15T16:42:08;3.40;;;1.30;;
15006;SDS011;7599;50.748;13.142;2024-01-15T16:45:28;2.03;;;1.20;;
15006;SDS011;7599;50.748;13.142;2024-01-15T16:49:01;2.33;;;1.17;;
15006;SDS011;7599;50.748;13.142;2024-01-15T16:52:25;2.05;;;1.13;;
15006;SDS011;7599;50.748;13.142;2024-01-15T16:55:33;3.30;;;1.52;;
15006;SDS011;7599;50.748;13.142;2024-01-15T17:02:53;2.20;;;1.30;;
15006;SDS011;7599;50.748;13.142;2024-01-15T17:06:11;2.97;;;1.27;;
15006;SDS011;7599;50.748;13.142;2024-01-15T17:09:18;2.20;;;1.10;;
15006;SDS011;7599;50.748;13.142;2024-01-15T17:12:36;2.50;;;1.20;;
15006;SDS011;7599;50.748;13.142;2024-01-15T17:16:10;3.45;;;1.30;;
15006;SDS011;7599;50.748;13.142;2024-01-15T17:23:17;2.08;;;1.10;;
15006;SDS011;7599;50.748;13.142;2024-01-15T17:26:32;1.77;;;1.08;;
15006;SDS011;7599;50.748;13.142;2024-01-15T17:30:11;2.08;;;1.05;;
15006;SDS011;7599;50.748;13.142;2024-01-15T17:34:09;1.73;;;1.13;;
15006;SDS011;7599;50.748;13.142;2024-01-15T17:37:22;2.90;;;1.23;;
15006;SDS011;7599;50.748;13.142;2024-01-15T17:40:32;2.97;;;1.17;;
15006;SDS011;7599;50.748;13.142;2024-01-15T17:43:45;3.28;;;1.55;;
15006;SDS011;7599;50.748;13.142;2024-01-15T17:47:08;2.97;;;1.40;;
15006;SDS011;7599;50.748;13.142;2024-01-15T17:54:26;3.53;;;1.85;;
15006;SDS011;7599;50.748;13.142;2024-01-15T17:57:59;3.20;;;1.70;;
15006;SDS011;7599;50.748;13.142;2024-01-15T18:04:59;4.38;;;1.33;;
15006;SDS011;7599;50.748;13.142;2024-01-15T18:08:27;3.28;;;1.65;;
15006;SDS011;7599;50.748;13.142;2024-01-15T18:12:23;2.67;;;1.70;;
15006;SDS011;7599;50.748;13.142;2024-01-15T18:16:07;4.05;;;1.70;;
15006;SDS011;7599;50.748;13.142;2024-01-15T18:19:27;2.83;;;1.50;;
15006;SDS011;7599;50.748;13.142;2024-01-15T18:23:12;3.92;;;1.67;;
15006;SDS011;7599;50.748;13.142;2024-01-15T18:29:59;4.20;;;1.90;;
15006;SDS011;7599;50.748;13.142;2024-01-15T18:36:53;3.22;;;1.38;;
15006;SDS011;7599;50.748;13.142;2024-01-15T18:40:34;3.38;;;1.67;;
15006;SDS011;7599;50.748;13.142;2024-01-15T18:47:59;3.40;;;1.58;;
15006;SDS011;7599;50.748;13.142;2024-01-15T18:59:37;5.45;;;1.67;;
15006;SDS011;7599;50.748;13.142;2024-01-15T19:03:28;3.45;;;1.50;;
15006;SDS011;7599;50.748;13.142;2024-01-15T19:07:22;2.72;;;1.48;;
15006;SDS011;7599;50.748;13.142;2024-01-15T19:10:52;3.00;;;1.33;;
15006;SDS011;7599;50.748;13.142;2024-01-15T19:17:25;3.88;;;1.58;;
15006;SDS011;7599;50.748;13.142;2024-01-15T19:20:53;2.88;;;1.40;;
15006;SDS011;7599;50.748;13.142;2024-01-15T19:24:24;2.58;;;1.50;;
15006;SDS011;7599;50.748;13.142;2024-01-15T19:27:48;1.98;;;1.27;;
15006;SDS011;7599;50.748;13.142;2024-01-15T19:31:38;3.10;;;1.30;;
15006;SDS011;7599;50.748;13.142;2024-01-15T19:35:01;2.88;;;1.42;;
15006;SDS011;7599;50.748;13.142;2024-01-15T19:38:33;2.55;;;1.55;;
15006;SDS011;7599;50.748;13.142;2024-01-15T19:42:22;1.83;;;1.00;;
15006;SDS011;7599;50.748;13.142;2024-01-15T19:45:52;2.38;;;1.42;;
15006;SDS011;7599;50.748;13.142;2024-01-15T19:49:14;2.78;;;1.30;;
15006;SDS011;7599;50.748;13.142;2024-01-15T19:52:39;3.22;;;1.23;;
15006;SDS011;7599;50.748;13.142;2024-01-15T19:56:13;2.88;;;1.23;;
15006;SDS011;7599;50.748;13.142;2024-01-15T19:59:43;2.10;;;1.10;;
15006;SDS011;7599;50.748;13.142;2024-01-15T20:03:15;3.85;;;1.30;;
15006;SDS011;7599;50.748;13.142;2024-01-15T20:07:06;3.85;;;1.15;;
15006;SDS011;7599;50.748;13.142;2024-01-15T20:18:14;2.58;;;1.27;;
15006;SDS011;7599;50.748;13.142;2024-01-15T20:21:49;3.05;;;1.63;;
15006;SDS011;7599;50.748;13.142;2024-01-15T20:25:38;1.92;;;1.35;;
15006;SDS011;7599;50.748;13.142;2024-01-15T20:28:54;2.50;;;1.50;;
15006;SDS011;7599;50.748;13.142;2024-01-15T20:32:20;3.08;;;1.60;;
15006;SDS011;7599;50.748;13.142;2024-01-15T20:36:11;2.58;;;1.20;;
15006;SDS011;7599;50.748;13.142;2024-01-15T20:42:55;2.90;;;1.27;;
15006;SDS011;7599;50.748;13.142;2024-01-15T20:46:31;1.95;;;1.08;;
15006;SDS011;7599;50.748;13.142;2024-01-15T20:50:11;2.10;;;1.20;;
15006;SDS011;7599;50.748;13.142;2024-01-15T20:57:31;4.30;;;1.27;;
15006;SDS011;7599;50.748;13.142;2024-01-15T21:01:04;1.58;;;1.00;;
15006;SDS011;7599;50.748;13.142;2024-01-15T21:05:08;2.20;;;1.20;;
15006;SDS011;7599;50.748;13.142;2024-01-15T21:08:28;2.55;;;1.10;;
15006;SDS011;7599;50.748;13.142;2024-01-15T21:12:11;2.20;;;1.10;;
15006;SDS011;7599;50.748;13.142;2024-01-15T21:15:57;2.85;;;1.20;;
15006;SDS011;7599;50.748;13.142;2024-01-15T21:19:52;3.28;;;1.33;;
15006;SDS011;7599;50.748;13.142;2024-01-15T21:23:46;1.83;;;1.00;;
15006;SDS011;7599;50.748;13.142;2024-01-15T21:26:58;1.90;;;1.27;;
15006;SDS011;7599;50.748;13.142;2024-01-15T21:30:29;1.63;;;0.80;;
15006;SDS011;7599;50.748;13.142;2024-01-15T21:34:33;1.98;;;1.00;;
15006;SDS011;7599;50.748;13.142;2024-01-15T21:38:07;1.67;;;1.00;;
15006;SDS011;7599;50.748;13.142;2024-01-15T21:41:10;1.80;;;1.02;;
15006;SDS011;7599;50.748;13.142;2024-01-15T21:44:58;1.33;;;0.82;;
15006;SDS011;7599;50.748;13.142;2024-01-15T21:48:25;3.05;;;0.85;;
15006;SDS011;7599;50.748;13.142;2024-01-15T21:52:28;3.10;;;0.75;;
15006;SDS011;7599;50.748;13.142;2024-01-15T21:55:38;1.83;;;0.90;;
15006;SDS011;7599;50.748;13.142;2024-01-15T21:58:58;2.90;;;1.10;;
15006;SDS011;7599;50.748;13.142;2024-01-15T22:02:32;2.53;;;0.85;;
15006;SDS011;7599;50.748;13.142;2024-01-15T22:06:33;1.48;;;0.77;;
15006;SDS011;7599;50.748;13.142;2024-01-15T22:18:17;1.77;;;1.00;;
15006;SDS011;7599;50.748;13.142;2024-01-15T22:31:42;2.08;;;0.65;;
15006;SDS011;7599;50.748;13.142;2024-01-15T22:35:33;0.90;;;0.70;;
15006;SDS011;7599;50.748;13.142;2024-01-15T22:43:25;0.80;;;0.60;;
15006;SDS011;7599;50.748;13.142;2024-01-15T22:50:54;0.85;;;0.70;;
15006;SDS011;7599;50.748;13.142;2024-01-15T22:54:49;0.77;;;0.65;;
15006;SDS011;7599;50.748;13.142;2024-01-15T23:09:57;0.80;;;0.60;;
15006;SDS011;7599;50.748;13.142;2024-01-15T23:13:15;1.73;;;0.63;;
15006;SDS011;7599;50.748;13.142;2024-01-15T23:23:56;1.08;;;0.75;;
15006;SDS011;7599;50.748;13.142;2024-01-15T23:27:55;1.25;;;0.68;;
15006;SDS011;7599;50.748;13.142;2024-01-15T23:31:11;0.80;;;0.60;;
15006;SDS011;7599;50.748;13.142;2024-01-15T23:34:44;1.10;;;0.68;;
15006;SDS011;7599;50.748;13.142;2024-01-15T23:41:55;0.98;;;0.50;;
15006;SDS011;7599;50.748;13.142;2024-01-15T23:45:46;1.00;;;0.57;;
15006;SDS011;7599;50.748;13.142;2024-01-15T23:49:43;1.00;;;0.60;;
15006;SDS011;7599;50.748;13.142;2024-01-15T23:56:34;0.63;;;0.50;;
